Zabcikville, Texas
Current Conditions -  °F | °C
As of 2:35 AM on Sunday 28 Dec 2014 (Local Time) from KTPL Reporting Station
Broken Clouds Broken Clouds  
Wind Chill: 29°   Ceiling: 7000
Heat Index: 37°   Visibility: 10mi
Dew Point: 21°   Wind: 15mph
Humidity: 52%   Direction: 330°NNW
Pressure: 30.26"   Gusts: 21mph
Location:  31.0795°N, 97.3287°W
Report Text: KTPL 280835Z AUTO 33013G18KT 10SM BKN070 BKN090 03/M06 A3026 RMK AO1
Loading
Personal Weather Stations






























Interactive Weather Map New forecast layout! Learn more

10-Day Weather Forecast

Advertisements
Track Severe Weather on mobile